Time;durP1;ratioP1;P1;durP2;ratioP2;P2;SDS_P1;SDS_P2;PMS_P1;PMS_P2;Temp;Humidity;BMP_temperature;BMP_pressure;BME280_temperature;BME280_humidity;BME280_pressure;Samples;Min_cycle;Max_cycle;Signal;HPM_P1;HPM_P2
2022/02/10 00:08:00;;;;;;;;;;;24.00;44.10;;;;;;1570660;73;1111;-72
2022/02/10 00:19:15;;;;;;;;;;;24.00;44.10;;;;;;1613782;72;1138;-72
2022/02/10 00:21:10;;;;;;;;;;;24.10;44.20;;;;;;1591901;74;1668;-70
2022/02/10 00:23:19;;;;;;;;;;;24.00;44.20;;;;;;1584896;75;1632;-71
2022/02/10 00:34:31;;;;;;;;;;;24.00;44.00;;;;;;1585908;75;1699;-69
2022/02/10 00:36:45;;;;;;;;;;;24.00;44.00;;;;;;1585885;75;1927;-68
2022/02/10 00:38:52;;;;;;;;;;;24.00;44.00;;;;;;1584587;74;1648;-74
2022/02/10 00:40:46;;;;;;;;;;;24.10;44.20;;;;;;1613838;73;1693;-73
2022/02/10 00:42:48;;;;;;;;;;;24.00;44.10;;;;;;1613823;74;819;-69
2022/02/10 00:44:50;;;;;;;;;;;24.10;44.30;;;;;;1614268;73;738;-69
2022/02/10 00:46:51;;;;;;;;;;;24.00;44.30;;;;;;1614670;73;749;-69
2022/02/10 00:48:53;;;;;;;;;;;24.10;44.20;;;;;;1614294;72;1110;-69
2022/02/10 00:50:56;;;;;;;;;;;24.00;44.20;;;;;;1614101;73;795;-70
2022/02/10 00:53:05;;;;;;;;;;;24.00;44.10;;;;;;1613569;73;714;-70
2022/02/10 00:55:04;;;;;;;;;;;24.00;44.10;;;;;;1614535;73;1661;-69
2022/02/10 00:57:09;;;;;;;;;;;24.00;44.10;;;;;;1610387;73;1920;-69
2022/02/10 00:59:34;;;;;;;;;;;24.00;44.10;;;;;;1614386;72;1137;-72
2022/02/10 01:14:06;;;;;;;;;;;24.00;44.10;;;;;;1573765;75;1681;-69
2022/02/10 01:29:41;;;;;;;;;;;23.90;44.30;;;;;;1567829;75;1650;-67
2022/02/10 01:31:41;;;;;;;;;;;24.00;44.30;;;;;;1569208;75;1752;-66
2022/02/10 01:33:43;;;;;;;;;;;23.90;44.30;;;;;;1572115;75;821;-67
2022/02/10 01:35:45;;;;;;;;;;;23.90;44.40;;;;;;1562562;75;742;-69
2022/02/10 01:37:47;;;;;;;;;;;24.00;44.40;;;;;;1570030;75;870;-68
2022/02/10 01:39:54;;;;;;;;;;;24.00;44.40;;;;;;1566967;75;1146;-67
2022/02/10 01:58:25;;;;;;;;;;;24.00;44.40;;;;;;1562942;75;1632;-66
2022/02/10 02:04:56;;;;;;;;;;;23.90;44.50;;;;;;1567034;75;1701;-68
2022/02/10 02:06:58;;;;;;;;;;;23.90;44.50;;;;;;1564243;75;760;-68
2022/02/10 02:09:02;;;;;;;;;;;23.80;44.40;;;;;;1558556;75;1914;-67
2022/02/10 02:11:03;;;;;;;;;;;23.90;44.50;;;;;;1559515;75;1737;-69
2022/02/10 02:13:05;;;;;;;;;;;23.90;44.50;;;;;;1565898;75;742;-67
2022/02/10 02:15:07;;;;;;;;;;;23.90;44.50;;;;;;1560744;75;795;-67
2022/02/10 02:17:09;;;;;;;;;;;23.90;44.50;;;;;;1549756;75;816;-68
2022/02/10 02:19:11;;;;;;;;;;;23.90;44.50;;;;;;1555961;75;1122;-68
2022/02/10 02:21:14;;;;;;;;;;;23.90;44.50;;;;;;1559156;75;770;-68
2022/02/10 02:23:17;;;;;;;;;;;23.90;44.50;;;;;;1554376;75;1941;-70
2022/02/10 02:25:20;;;;;;;;;;;23.90;44.50;;;;;;1556529;75;794;-69
2022/02/10 02:27:22;;;;;;;;;;;23.90;44.50;;;;;;1559795;75;760;-68
2022/02/10 02:29:32;;;;;;;;;;;23.90;44.50;;;;;;1561443;75;1943;-68
2022/02/10 02:31:38;;;;;;;;;;;23.90;44.50;;;;;;1547131;75;1634;-68
2022/02/10 02:34:02;;;;;;;;;;;23.90;44.50;;;;;;1553876;76;1528;-68
2022/02/10 02:38:17;;;;;;;;;;;23.90;44.50;;;;;;1567470;75;1643;-68
2022/02/10 03:05:42;;;;;;;;;;;23.80;44.50;;;;;;1546354;75;1713;-69
2022/02/10 03:07:46;;;;;;;;;;;23.80;44.60;;;;;;1530006;76;1617;-71
2022/02/10 03:09:53;;;;;;;;;;;23.80;44.60;;;;;;1544309;76;1928;-68
2022/02/10 03:11:44;;;;;;;;;;;23.90;44.70;;;;;;1532510;77;1725;-70
2022/02/10 03:13:51;;;;;;;;;;;23.80;44.60;;;;;;1535671;77;625;-71
2022/02/10 03:20:42;;;;;;;;;;;23.90;44.70;;;;;;1563356;75;1164;-70
2022/02/10 04:04:44;;;;;;;;;;;24.10;45.00;;;;;;1535556;77;849;-69
2022/02/10 04:06:53;;;;;;;;;;;24.10;44.90;;;;;;1533907;77;1575;-65
2022/02/10 04:11:10;;;;;;;;;;;24.20;44.80;;;;;;1525927;77;1117;-69
2022/02/10 04:22:21;;;;;;;;;;;24.20;44.70;;;;;;1551094;75;816;-72
2022/02/10 04:58:14;;;;;;;;;;;24.50;44.80;;;;;;1552297;76;1686;-70
2022/02/10 04:59:54;;;;;;;;;;;24.50;44.70;;;;;;1547459;77;1416;-70
2022/02/10 05:21:56;;;;;;;;;;;24.60;44.40;;;;;;1556262;76;1046;-70
2022/02/10 05:33:28;;;;;;;;;;;24.60;44.40;;;;;;1538115;76;1649;-70
2022/02/10 05:35:33;;;;;;;;;;;24.60;44.30;;;;;;1531589;77;1594;-73
2022/02/10 05:37:35;;;;;;;;;;;24.60;44.20;;;;;;1537589;76;1694;-71
2022/02/10 05:39:41;;;;;;;;;;;24.70;44.40;;;;;;1548629;76;1745;-70
2022/02/10 05:46:13;;;;;;;;;;;24.70;44.30;;;;;;1554030;76;812;-71
2022/02/10 06:52:46;;;;;;;;;;;24.70;44.10;;;;;;1542985;77;806;-69
2022/02/10 06:54:43;;;;;;;;;;;24.70;44.10;;;;;;1551984;74;1357;-70
2022/02/10 06:57:05;;;;;;;;;;;24.70;44.20;;;;;;1572843;74;1521;-71
2022/02/10 07:10:33;;;;;;;;;;;24.60;44.20;;;;;;1587533;74;1929;-71
2022/02/10 07:12:57;;;;;;;;;;;24.60;44.10;;;;;;1570474;75;1678;-71
2022/02/10 07:14:57;;;;;;;;;;;24.60;44.00;;;;;;1566269;74;1474;-70
2022/02/10 07:17:06;;;;;;;;;;;24.60;44.10;;;;;;1572137;74;1463;-70
2022/02/10 07:58:04;;;;;;;;;;;24.60;43.90;;;;;;1575639;74;1689;-69
2022/02/10 08:00:21;;;;;;;;;;;24.60;43.90;;;;;;1574136;74;1746;-71
2022/02/10 08:04:47;;;;;;;;;;;24.60;43.90;;;;;;1562444;74;1046;-73
2022/02/10 08:59:35;;;;;;;;;;;24.30;40.70;;;;;;1520096;74;1191;-71
2022/02/10 09:03:45;;;;;;;;;;;24.30;39.70;;;;;;1567368;74;852;-71
2022/02/10 09:05:54;;;;;;;;;;;24.30;39.50;;;;;;1582888;74;1126;-70
2022/02/10 09:15:00;;;;;;;;;;;24.20;38.80;;;;;;1551818;76;659;-72
2022/02/10 09:19:19;;;;;;;;;;;24.20;37.70;;;;;;1559376;75;1236;-71
2022/02/10 09:27:03;;;;;;;;;;;24.00;36.30;;;;;;1526669;76;1661;-71
2022/02/10 09:55:44;;;;;;;;;;;23.70;33.70;;;;;;1541992;76;1651;-71
2022/02/10 10:02:09;;;;;;;;;;;23.70;32.30;;;;;;1557638;75;1689;-71
2022/02/10 10:04:31;;;;;;;;;;;23.60;31.50;;;;;;1534522;75;1689;-72
2022/02/10 10:06:43;;;;;;;;;;;23.60;32.10;;;;;;1538634;75;1610;-71
2022/02/10 10:08:48;;;;;;;;;;;23.60;32.10;;;;;;1547987;75;1709;-72
2022/02/10 10:11:04;;;;;;;;;;;23.60;32.20;;;;;;1553551;75;1931;-72
2022/02/10 10:15:34;;;;;;;;;;;23.50;31.80;;;;;;1531171;76;1628;-71
2022/02/10 10:17:41;;;;;;;;;;;23.60;32.40;;;;;;1541884;75;983;-71
2022/02/10 10:19:56;;;;;;;;;;;23.50;32.60;;;;;;1538317;76;1713;-71
2022/02/10 10:22:25;;;;;;;;;;;23.60;32.80;;;;;;1530013;76;1671;-71
2022/02/10 10:45:23;;;;;;;;;;;23.60;33.70;;;;;;1566530;75;1659;-70
2022/02/10 10:55:37;;;;;;;;;;;23.70;33.60;;;;;;1543144;76;855;-70
2022/02/10 10:57:33;;;;;;;;;;;23.60;33.50;;;;;;1533413;75;1651;-71
2022/02/10 10:59:42;;;;;;;;;;;23.60;33.40;;;;;;1538690;75;1441;-71
2022/02/10 11:07:34;;;;;;;;;;;23.60;33.40;;;;;;1553106;76;852;-69
2022/02/10 11:37:37;;;;;;;;;;;23.60;33.80;;;;;;1565818;74;737;-72
2022/02/10 11:43:48;;;;;;;;;;;23.50;33.90;;;;;;1533133;74;1003;-72
2022/02/10 13:02:53;;;;;;;;;;;23.30;34.70;;;;;;1563069;76;1643;-70
2022/02/10 13:23:57;;;;;;;;;;;23.10;34.80;;;;;;1570813;74;1665;-70
2022/02/10 13:50:07;;;;;;;;;;;23.00;34.40;;;;;;1567284;74;1660;-68
2022/02/10 14:10:03;;;;;;;;;;;23.00;34.90;;;;;;1558820;74;1661;-69
2022/02/10 14:14:01;;;;;;;;;;;23.00;34.90;;;;;;1560570;75;1074;-68
2022/02/10 14:16:29;;;;;;;;;;;23.00;34.90;;;;;;1544948;76;1774;-66
2022/02/10 14:27:01;;;;;;;;;;;23.10;35.60;;;;;;1545167;75;1667;-68
2022/02/10 14:29:03;;;;;;;;;;;23.10;35.60;;;;;;1557059;75;1157;-67
2022/02/10 14:31:06;;;;;;;;;;;23.20;35.60;;;;;;1563909;75;1926;-68
2022/02/10 14:33:08;;;;;;;;;;;23.20;35.80;;;;;;1556049;76;705;-68
2022/02/10 14:35:23;;;;;;;;;;;23.20;35.80;;;;;;1542507;76;679;-68
2022/02/10 15:10:57;;;;;;;;;;;23.30;36.10;;;;;;1566282;75;1701;-69
2022/02/10 15:13:17;;;;;;;;;;;23.20;36.70;;;;;;1599279;73;1850;-71
2022/02/10 15:17:12;;;;;;;;;;;23.30;36.90;;;;;;1588269;73;1247;-71
2022/02/10 15:48:46;;;;;;;;;;;23.20;37.40;;;;;;1585451;75;874;-71
2022/02/10 15:50:25;;;;;;;;;;;23.20;37.40;;;;;;1578791;75;972;-71
2022/02/10 16:17:08;;;;;;;;;;;23.20;37.80;;;;;;1579214;75;1769;-72
2022/02/10 16:19:10;;;;;;;;;;;23.20;37.80;;;;;;1581861;75;734;-70
2022/02/10 16:21:13;;;;;;;;;;;23.10;37.80;;;;;;1585653;75;713;-69
2022/02/10 16:23:20;;;;;;;;;;;23.10;37.90;;;;;;1579175;75;684;-71
2022/02/10 16:25:24;;;;;;;;;;;23.20;37.90;;;;;;1583607;75;1650;-70
2022/02/10 16:27:27;;;;;;;;;;;23.20;38.00;;;;;;1584435;74;1175;-71
2022/02/10 16:29:30;;;;;;;;;;;23.10;38.00;;;;;;1582800;75;1150;-72
2022/02/10 16:31:31;;;;;;;;;;;23.20;38.00;;;;;;1585531;75;1926;-69
2022/02/10 16:33:34;;;;;;;;;;;23.20;38.10;;;;;;1585550;75;692;-69
2022/02/10 16:35:35;;;;;;;;;;;23.20;38.10;;;;;;1579733;75;1127;-69
2022/02/10 16:37:40;;;;;;;;;;;23.20;38.10;;;;;;1584904;75;667;-70
2022/02/10 16:39:41;;;;;;;;;;;23.30;38.20;;;;;;1584899;75;1593;-70
2022/02/10 16:41:44;;;;;;;;;;;23.30;38.20;;;;;;1580530;75;734;-70
2022/02/10 16:43:46;;;;;;;;;;;23.30;38.10;;;;;;1585417;75;715;-71
2022/02/10 16:45:48;;;;;;;;;;;23.40;38.10;;;;;;1583128;75;1145;-70
2022/02/10 16:47:50;;;;;;;;;;;23.50;38.20;;;;;;1583513;75;777;-70
2022/02/10 16:49:53;;;;;;;;;;;23.60;38.10;;;;;;1583002;75;713;-71
2022/02/10 16:51:56;;;;;;;;;;;23.60;38.10;;;;;;1580047;75;1905;-69
2022/02/10 16:54:05;;;;;;;;;;;23.60;38.00;;;;;;1581568;75;861;-69
2022/02/10 16:56:08;;;;;;;;;;;23.70;38.30;;;;;;1579593;75;1510;-69
2022/02/10 17:20:42;;;;;;;;;;;23.80;39.40;;;;;;1558299;75;860;-69
2022/02/10 17:28:01;;;;;;;;;;;24.00;39.40;;;;;;1550106;76;1687;-69
2022/02/10 17:29:41;;;;;;;;;;;24.00;39.20;;;;;;1556222;74;1189;-69
2022/02/10 17:36:09;;;;;;;;;;;24.10;39.20;;;;;;1567599;75;1684;-70
2022/02/10 17:43:33;;;;;;;;;;;24.00;39.10;;;;;;1546947;75;941;-71
2022/02/10 17:51:27;;;;;;;;;;;24.10;39.40;;;;;;1554375;75;1645;-69
2022/02/10 17:54:01;;;;;;;;;;;24.10;39.50;;;;;;1556866;75;860;-71
2022/02/10 17:56:03;;;;;;;;;;;24.20;39.50;;;;;;1566330;75;1232;-71
2022/02/10 17:58:05;;;;;;;;;;;24.20;39.40;;;;;;1547606;75;754;-70
2022/02/10 18:00:07;;;;;;;;;;;24.20;39.50;;;;;;1551414;74;760;-68
2022/02/10 18:02:09;;;;;;;;;;;24.20;39.50;;;;;;1550356;75;748;-69
2022/02/10 18:04:11;;;;;;;;;;;24.20;39.50;;;;;;1550712;75;599;-69
2022/02/10 18:08:23;;;;;;;;;;;24.20;39.40;;;;;;1552720;74;758;-71
2022/02/10 18:13:19;;;;;;;;;;;24.30;39.50;;;;;;1559352;74;1923;-69
2022/02/10 18:14:55;;;;;;;;;;;24.30;39.50;;;;;;1548094;75;979;-72
2022/02/10 18:17:00;;;;;;;;;;;24.30;39.50;;;;;;1548786;75;1104;-69
2022/02/10 18:19:08;;;;;;;;;;;24.30;39.50;;;;;;1553968;75;1570;-70
2022/02/10 18:21:26;;;;;;;;;;;24.30;39.40;;;;;;1547760;75;1210;-70
2022/02/10 18:23:17;;;;;;;;;;;24.30;39.50;;;;;;1554010;75;1237;-69
2022/02/10 19:01:54;;;;;;;;;;;24.40;39.80;;;;;;1534859;75;915;-71
2022/02/10 19:05:29;;;;;;;;;;;24.40;39.80;;;;;;1556533;74;1753;-73
2022/02/10 19:06:30;;;;;;;;;;;24.40;39.90;;;;;;1551316;74;1166;-73
2022/02/10 19:10:19;;;;;;;;;;;24.40;40.00;;;;;;1544861;75;1065;-73
2022/02/10 19:12:27;;;;;;;;;;;24.50;40.30;;;;;;1559449;73;2097;-72
2022/02/10 19:14:24;;;;;;;;;;;24.40;40.30;;;;;;1555008;74;983;-72
2022/02/10 19:16:26;;;;;;;;;;;24.40;40.40;;;;;;1559861;75;1225;-73
2022/02/10 19:18:28;;;;;;;;;;;24.50;40.70;;;;;;1549609;74;873;-74
2022/02/10 19:20:31;;;;;;;;;;;24.50;40.90;;;;;;1549349;74;756;-72
2022/02/10 19:22:33;;;;;;;;;;;24.50;41.00;;;;;;1552570;75;649;-72
2022/02/10 19:24:35;;;;;;;;;;;24.50;41.00;;;;;;1534533;76;561;-71
2022/02/10 19:26:38;;;;;;;;;;;24.50;41.00;;;;;;1554520;76;1168;-72
2022/02/10 19:28:40;;;;;;;;;;;24.60;41.10;;;;;;1540443;76;679;-72
2022/02/10 19:30:44;;;;;;;;;;;24.50;41.10;;;;;;1545849;76;668;-73
2022/02/10 19:33:03;;;;;;;;;;;24.50;41.20;;;;;;1558476;76;1889;-71
2022/02/10 19:35:01;;;;;;;;;;;24.50;41.20;;;;;;1557299;76;1048;-72
2022/02/10 19:37:03;;;;;;;;;;;24.50;41.30;;;;;;1560075;75;1083;-71
2022/02/10 19:39:05;;;;;;;;;;;24.50;41.30;;;;;;1560164;76;712;-71
2022/02/10 19:41:06;;;;;;;;;;;24.60;41.40;;;;;;1544782;76;709;-71
2022/02/10 19:43:10;;;;;;;;;;;24.60;41.40;;;;;;1541161;76;756;-72
2022/02/10 19:45:12;;;;;;;;;;;24.60;41.50;;;;;;1533570;77;1139;-73
2022/02/10 19:47:13;;;;;;;;;;;24.60;41.50;;;;;;1533827;77;762;-73
2022/02/10 19:49:21;;;;;;;;;;;24.60;41.60;;;;;;1539036;76;654;-73
2022/02/10 19:51:22;;;;;;;;;;;24.60;41.90;;;;;;1553642;75;1128;-71
2022/02/10 19:53:24;;;;;;;;;;;24.70;42.40;;;;;;1560083;76;1938;-72
2022/02/10 19:55:26;;;;;;;;;;;24.60;42.40;;;;;;1560012;75;1103;-72
2022/02/10 19:57:28;;;;;;;;;;;24.60;42.30;;;;;;1559184;76;650;-72
2022/02/10 19:59:31;;;;;;;;;;;24.60;42.30;;;;;;1560152;76;796;-72
2022/02/10 20:01:33;;;;;;;;;;;24.70;42.30;;;;;;1560045;76;772;-71
2022/02/10 20:03:39;;;;;;;;;;;24.70;42.30;;;;;;1560095;75;737;-72
2022/02/10 20:05:44;;;;;;;;;;;24.70;42.30;;;;;;1559970;74;1615;-71
2022/02/10 20:07:47;;;;;;;;;;;24.70;42.20;;;;;;1559299;74;1122;-69
2022/02/10 20:09:47;;;;;;;;;;;24.60;42.10;;;;;;1541302;74;1117;-72
2022/02/10 20:11:51;;;;;;;;;;;24.80;42.50;;;;;;1533771;77;677;-71
2022/02/10 20:13:53;;;;;;;;;;;24.70;42.20;;;;;;1539192;75;1897;-72
2022/02/10 20:15:55;;;;;;;;;;;24.70;42.20;;;;;;1571095;75;1298;-71
2022/02/10 20:17:58;;;;;;;;;;;24.80;42.10;;;;;;1559967;76;723;-72
2022/02/10 20:20:02;;;;;;;;;;;24.80;41.90;;;;;;1558565;75;738;-73
2022/02/10 20:22:05;;;;;;;;;;;24.80;41.80;;;;;;1552749;75;697;-72
2022/02/10 20:24:07;;;;;;;;;;;24.80;41.90;;;;;;1559805;75;703;-72
2022/02/10 20:26:12;;;;;;;;;;;24.80;41.90;;;;;;1567791;74;1141;-72
2022/02/10 20:28:16;;;;;;;;;;;24.80;41.90;;;;;;1558297;74;936;-72
2022/02/10 20:30:18;;;;;;;;;;;24.80;42.10;;;;;;1545283;76;1566;-72
2022/02/10 20:32:20;;;;;;;;;;;24.80;41.90;;;;;;1560094;76;1907;-72
2022/02/10 20:34:23;;;;;;;;;;;24.80;41.80;;;;;;1560044;76;724;-73
2022/02/10 20:36:25;;;;;;;;;;;24.80;41.90;;;;;;1559805;76;1153;-73
2022/02/10 20:38:29;;;;;;;;;;;25.00;41.80;;;;;;1559384;76;704;-73
2022/02/10 20:40:34;;;;;;;;;;;24.90;41.80;;;;;;1560097;76;720;-73
2022/02/10 20:42:35;;;;;;;;;;;25.00;41.80;;;;;;1560129;74;1119;-72
2022/02/10 20:44:41;;;;;;;;;;;24.80;41.70;;;;;;1560097;76;712;-73
2022/02/10 20:46:42;;;;;;;;;;;24.90;42.00;;;;;;1558932;76;1134;-72
2022/02/10 20:48:44;;;;;;;;;;;24.90;41.80;;;;;;1560004;76;1002;-72
2022/02/10 20:50:51;;;;;;;;;;;24.80;41.80;;;;;;1559276;76;704;-72
2022/02/10 20:52:50;;;;;;;;;;;24.90;41.70;;;;;;1559895;74;1928;-73
2022/02/10 20:54:52;;;;;;;;;;;24.90;41.80;;;;;;1560143;76;630;-72
2022/02/10 20:56:54;;;;;;;;;;;24.80;41.70;;;;;;1559175;76;1143;-72
2022/02/10 20:58:59;;;;;;;;;;;24.90;41.80;;;;;;1559873;76;750;-73
2022/02/10 21:01:01;;;;;;;;;;;24.90;41.80;;;;;;1559746;74;1115;-73
2022/02/10 21:03:03;;;;;;;;;;;24.80;41.70;;;;;;1560016;74;1520;-73
2022/02/10 21:05:20;;;;;;;;;;;24.80;41.70;;;;;;1560026;75;665;-73
2022/02/10 21:07:20;;;;;;;;;;;24.80;41.80;;;;;;1550006;72;3029;-71
2022/02/10 21:09:33;;;;;;;;;;;24.80;41.90;;;;;;1550805;75;1655;-72
2022/02/10 21:11:24;;;;;;;;;;;24.80;41.80;;;;;;1581615;74;1779;-71
2022/02/10 21:13:25;;;;;;;;;;;24.80;41.90;;;;;;1581865;74;1920;-71
2022/02/10 21:15:31;;;;;;;;;;;24.80;41.90;;;;;;1581768;74;798;-73
2022/02/10 21:17:31;;;;;;;;;;;24.80;42.00;;;;;;1548362;74;1644;-69
2022/02/10 21:19:34;;;;;;;;;;;24.80;42.10;;;;;;1543871;76;712;-72
2022/02/10 21:21:36;;;;;;;;;;;24.80;42.30;;;;;;1543261;76;816;-68
2022/02/10 21:23:51;;;;;;;;;;;24.70;42.10;;;;;;1543522;77;647;-69
2022/02/10 21:25:48;;;;;;;;;;;24.70;42.40;;;;;;1554742;74;1679;-69
2022/02/10 21:27:52;;;;;;;;;;;24.70;42.40;;;;;;1564924;74;721;-68
2022/02/10 21:30:00;;;;;;;;;;;24.60;42.40;;;;;;1543320;76;1259;-67
2022/02/10 21:32:00;;;;;;;;;;;24.70;42.60;;;;;;1542896;77;1807;-67
2022/02/10 21:34:14;;;;;;;;;;;24.70;42.60;;;;;;1543492;77;1912;-67
2022/02/10 21:38:27;;;;;;;;;;;24.60;42.70;;;;;;1543439;76;810;-67
2022/02/10 21:40:52;;;;;;;;;;;24.60;42.80;;;;;;1543457;77;722;-67
2022/02/10 21:56:39;;;;;;;;;;;24.50;43.10;;;;;;1543457;76;1183;-69
2022/02/10 22:09:39;;;;;;;;;;;24.30;43.20;;;;;;1572085;75;780;-66
2022/02/10 22:11:57;;;;;;;;;;;24.40;43.20;;;;;;1592581;74;1640;-66
2022/02/10 22:18:34;;;;;;;;;;;24.40;43.30;;;;;;1543487;77;1682;-67
2022/02/10 22:20:44;;;;;;;;;;;24.40;43.40;;;;;;1542613;76;1616;-70
2022/02/10 22:22:39;;;;;;;;;;;24.30;43.40;;;;;;1541473;77;1616;-67
2022/02/10 22:24:39;;;;;;;;;;;24.40;43.40;;;;;;1543223;77;1087;-67
2022/02/10 22:26:42;;;;;;;;;;;24.40;43.50;;;;;;1567990;74;1124;-67
2022/02/10 22:28:51;;;;;;;;;;;24.40;43.40;;;;;;1551004;76;729;-67
2022/02/10 22:30:55;;;;;;;;;;;24.30;43.40;;;;;;1542339;77;1424;-67
2022/02/10 22:33:04;;;;;;;;;;;24.40;43.50;;;;;;1542224;77;1944;-66
2022/02/10 22:34:55;;;;;;;;;;;24.40;43.50;;;;;;1541337;77;1644;-68
2022/02/10 22:36:59;;;;;;;;;;;24.30;43.60;;;;;;1543895;76;1176;-67
2022/02/10 22:39:02;;;;;;;;;;;24.30;43.60;;;;;;1543146;76;1254;-66
2022/02/10 22:41:14;;;;;;;;;;;24.30;43.70;;;;;;1543546;77;747;-68
2022/02/10 22:43:08;;;;;;;;;;;24.30;43.70;;;;;;1539556;77;1553;-66
2022/02/10 22:45:12;;;;;;;;;;;24.30;43.70;;;;;;1543248;77;775;-66
2022/02/10 22:47:13;;;;;;;;;;;24.30;43.60;;;;;;1543831;76;1685;-66
2022/02/10 22:49:15;;;;;;;;;;;24.40;43.70;;;;;;1544032;76;638;-68
2022/02/10 22:51:18;;;;;;;;;;;24.30;43.70;;;;;;1552932;76;758;-66
2022/02/10 22:53:20;;;;;;;;;;;24.30;43.70;;;;;;1569782;76;1943;-67
2022/02/10 22:55:22;;;;;;;;;;;24.40;43.70;;;;;;1569739;76;718;-67
2022/02/10 22:57:24;;;;;;;;;;;24.30;43.70;;;;;;1556618;76;1104;-67
2022/02/10 22:59:25;;;;;;;;;;;24.30;43.80;;;;;;1543466;77;938;-70
2022/02/10 23:01:27;;;;;;;;;;;24.40;43.70;;;;;;1555109;76;716;-67
2022/02/10 23:03:32;;;;;;;;;;;24.30;43.80;;;;;;1569877;75;753;-66
2022/02/10 23:05:33;;;;;;;;;;;24.40;43.70;;;;;;1554632;75;1680;-66
2022/02/10 23:07:35;;;;;;;;;;;24.30;43.80;;;;;;1543285;77;934;-66
2022/02/10 23:09:49;;;;;;;;;;;24.30;43.80;;;;;;1557682;76;723;-66
2022/02/10 23:11:51;;;;;;;;;;;24.30;43.90;;;;;;1565165;75;715;-67
2022/02/10 23:13:53;;;;;;;;;;;24.30;43.90;;;;;;1563924;75;1939;-66
2022/02/10 23:15:56;;;;;;;;;;;24.30;43.90;;;;;;1585169;73;1142;-67
2022/02/10 23:17:58;;;;;;;;;;;24.30;43.90;;;;;;1543407;77;644;-66
2022/02/10 23:19:59;;;;;;;;;;;24.30;43.90;;;;;;1544025;75;794;-67
2022/02/10 23:22:01;;;;;;;;;;;24.30;43.90;;;;;;1543552;77;707;-66
2022/02/10 23:24:03;;;;;;;;;;;24.30;44.00;;;;;;1543421;77;573;-68
2022/02/10 23:26:07;;;;;;;;;;;24.30;44.00;;;;;;1560119;74;1140;-69
2022/02/10 23:28:13;;;;;;;;;;;24.20;43.90;;;;;;1568509;75;2105;-67
2022/02/10 23:30:17;;;;;;;;;;;24.30;44.00;;;;;;1569708;76;593;-70
2022/02/10 23:32:19;;;;;;;;;;;24.30;44.10;;;;;;1569763;75;1890;-67
2022/02/10 23:34:21;;;;;;;;;;;24.30;44.10;;;;;;1569686;76;1931;-68
2022/02/10 23:36:40;;;;;;;;;;;24.30;44.10;;;;;;1565093;74;1173;-68
2022/02/10 23:38:34;;;;;;;;;;;24.20;44.00;;;;;;1543590;75;1685;-67
2022/02/10 23:40:39;;;;;;;;;;;24.30;44.20;;;;;;1542733;77;1586;-67
2022/02/10 23:42:37;;;;;;;;;;;24.20;44.10;;;;;;1542790;77;1626;-67
2022/02/10 23:44:46;;;;;;;;;;;24.20;44.10;;;;;;1543585;77;665;-68
2022/02/10 23:46:43;;;;;;;;;;;24.20;44.10;;;;;;1542326;76;1747;-68
2022/02/10 23:48:45;;;;;;;;;;;24.20;44.10;;;;;;1543413;77;684;-68
2022/02/10 23:50:47;;;;;;;;;;;24.20;44.20;;;;;;1546859;76;699;-70
2022/02/10 23:52:53;;;;;;;;;;;24.20;44.20;;;;;;1569787;76;666;-67
2022/02/10 23:54:58;;;;;;;;;;;24.20;44.10;;;;;;1569780;75;1912;-67
2022/02/10 23:57:15;;;;;;;;;;;24.20;44.10;;;;;;1569684;75;1588;-67
2022/02/10 23:59:37;;;;;;;;;;;24.30;44.40;;;;;;1544989;75;1548;-67
